createdAt,value
2022-10-27T00:00:44.888Z,28.25
2022-10-27T00:03:35.068Z,28.50
2022-10-27T00:06:24.450Z,26.55
2022-10-27T00:09:12.983Z,25.08
2022-10-27T00:12:03.249Z,23.65
2022-10-27T00:14:52.338Z,25.35
2022-10-27T00:17:42.344Z,28.67
2022-10-27T00:20:31.461Z,21.90
2022-10-27T00:23:20.824Z,19.38
2022-10-27T00:26:13.045Z,23.13
2022-10-27T00:29:02.222Z,28.80
2022-10-27T00:31:50.831Z,24.02
2022-10-27T00:34:40.175Z,21.20
2022-10-27T00:37:30.680Z,27.95
2022-10-27T00:40:20.363Z,24.55
2022-10-27T00:43:34.233Z,25.55
2022-10-27T00:46:46.969Z,23.40
2022-10-27T00:49:48.093Z,25.55
2022-10-27T00:52:48.992Z,23.65
2022-10-27T00:55:40.973Z,25.08
2022-10-27T00:58:30.337Z,19.95
2022-10-27T01:01:20.598Z,22.60
2022-10-27T01:04:10.090Z,18.55
2022-10-27T01:06:59.429Z,21.85
2022-10-27T01:09:49.466Z,23.15
2022-10-27T01:12:38.776Z,20.52
2022-10-27T01:15:49.525Z,21.38
2022-10-27T01:18:44.251Z,15.82
2022-10-27T01:22:10.261Z,17.92
2022-10-27T01:25:29.530Z,15.68
2022-10-27T01:28:51.919Z,20.55
2022-10-27T01:31:57.859Z,16.08
2022-10-27T01:34:47.854Z,15.98
2022-10-27T01:38:17.167Z,17.08
2022-10-27T01:41:34.262Z,18.92
2022-10-27T01:44:31.187Z,18.40
2022-10-27T01:47:23.193Z,16.15
2022-10-27T01:50:12.184Z,13.70
2022-10-27T01:53:02.521Z,15.40
2022-10-27T01:56:06.548Z,15.65
2022-10-27T01:59:17.680Z,16.80
2022-10-27T02:02:12.239Z,19.42
2022-10-27T02:05:42.146Z,16.63
2022-10-27T02:09:00.183Z,13.07
2022-10-27T02:11:53.497Z,15.82
2022-10-27T02:14:44.439Z,14.73
2022-10-27T02:17:40.127Z,16.85
2022-10-27T02:20:33.560Z,15.93
2022-10-27T02:23:23.784Z,14.85
2022-10-27T02:26:29.427Z,15.60
2022-10-27T02:29:24.682Z,14.63
2022-10-27T02:32:17.765Z,17.60
2022-10-27T02:35:07.495Z,16.73
2022-10-27T02:38:00.105Z,16.00
2022-10-27T02:40:49.415Z,11.50
2022-10-27T02:43:39.305Z,15.50
2022-10-27T02:46:28.197Z,12.38
2022-10-27T02:49:17.826Z,16.08
2022-10-27T02:52:07.177Z,14.98
2022-10-27T02:54:56.119Z,11.55
2022-10-27T02:57:49.638Z,14.95
2022-10-27T03:00:38.622Z,13.32
2022-10-27T03:03:27.716Z,11.70
2022-10-27T03:06:18.164Z,14.88
2022-10-27T03:09:07.913Z,12.45
2022-10-27T03:11:59.459Z,17.58
2022-10-27T03:14:48.901Z,12.10
2022-10-27T03:17:38.189Z,13.55
2022-10-27T03:20:27.090Z,14.45
2022-10-27T03:23:16.338Z,14.45
2022-10-27T03:26:05.753Z,9.68
2022-10-27T03:28:54.949Z,14.80
2022-10-27T03:31:44.193Z,15.10
2022-10-27T03:34:33.590Z,11.57
2022-10-27T03:37:23.475Z,15.88
2022-10-27T03:40:13.761Z,11.27
2022-10-27T03:43:05.526Z,9.13
2022-10-27T03:45:57.299Z,8.43
2022-10-27T03:48:51.697Z,8.18
2022-10-27T03:51:41.055Z,7.47
2022-10-27T03:54:37.051Z,6.70
2022-10-27T03:57:27.265Z,7.43
2022-10-27T04:00:16.683Z,7.45
2022-10-27T04:03:06.393Z,5.15
2022-10-27T04:05:56.549Z,6.00
2022-10-27T04:08:47.270Z,11.60
2022-10-27T04:11:36.423Z,6.03
2022-10-27T04:14:25.101Z,8.55
2022-10-27T04:17:13.925Z,6.43
2022-10-27T04:20:02.943Z,8.25
2022-10-27T04:22:52.381Z,9.05
2022-10-27T04:25:41.548Z,8.00
2022-10-27T04:28:30.939Z,7.15
2022-10-27T04:31:21.561Z,8.35
2022-10-27T04:34:13.292Z,7.20
2022-10-27T04:37:02.824Z,10.65
2022-10-27T04:39:51.759Z,6.45
2022-10-27T04:42:47.720Z,7.07
2022-10-27T04:45:39.719Z,7.60
2022-10-27T04:48:28.767Z,11.23
2022-10-27T04:51:22.304Z,10.77
2022-10-27T04:54:11.615Z,8.73
2022-10-27T04:57:01.372Z,10.05
2022-10-27T04:59:51.004Z,11.73
2022-10-27T05:02:39.857Z,11.63
2022-10-27T05:05:30.256Z,8.13
2022-10-27T05:08:19.901Z,9.45
2022-10-27T05:11:12.594Z,6.00
2022-10-27T05:14:04.568Z,6.53
2022-10-27T05:16:53.914Z,7.05
2022-10-27T05:19:46.033Z,9.05
2022-10-27T05:22:37.439Z,5.18
2022-10-27T05:25:26.297Z,6.40
2022-10-27T05:28:15.457Z,9.82
2022-10-27T05:31:04.646Z,7.13
2022-10-27T05:33:54.364Z,4.40
2022-10-27T05:36:43.955Z,5.20
2022-10-27T05:39:33.223Z,11.73
2022-10-27T05:42:22.133Z,6.97
2022-10-27T05:45:11.370Z,8.32
2022-10-27T05:48:05.750Z,7.13
2022-10-27T05:50:55.589Z,5.60
2022-10-27T05:53:44.325Z,7.25
2022-10-27T05:56:33.972Z,3.97
2022-10-27T05:59:22.868Z,5.35
2022-10-27T06:02:13.341Z,4.03
2022-10-27T06:05:02.780Z,7.38
2022-10-27T06:07:53.465Z,3.67
2022-10-27T06:10:43.357Z,8.13
2022-10-27T06:13:32.852Z,6.90
2022-10-27T06:16:23.044Z,5.72
2022-10-27T06:19:12.757Z,6.68
2022-10-27T06:22:01.732Z,7.55
2022-10-27T06:24:50.831Z,5.95
2022-10-27T06:27:39.544Z,4.93
2022-10-27T06:30:31.550Z,8.32
2022-10-27T06:33:21.795Z,8.93
2022-10-27T06:36:11.608Z,9.70
2022-10-27T06:39:00.970Z,5.38
2022-10-27T06:41:53.108Z,8.50
2022-10-27T06:44:44.816Z,12.50
2022-10-27T06:47:34.262Z,7.68
2022-10-27T06:50:23.480Z,42.38
2022-10-27T06:53:13.245Z,7.10
2022-10-27T06:56:02.031Z,9.18
2022-10-27T06:58:54.072Z,10.70
2022-10-27T07:01:46.423Z,6.63
2022-10-27T07:04:36.243Z,6.88
2022-10-27T07:07:28.518Z,5.57
2022-10-27T07:10:18.495Z,8.45
2022-10-27T07:13:07.730Z,11.77
2022-10-27T07:15:56.680Z,11.73
2022-10-27T07:18:50.536Z,6.07
2022-10-27T07:21:39.748Z,5.20
2022-10-27T07:24:32.129Z,6.18
2022-10-27T07:27:21.739Z,6.65
2022-10-27T07:30:11.306Z,9.15
2022-10-27T07:33:00.393Z,6.30
2022-10-27T07:35:54.173Z,8.90
2022-10-27T07:38:43.737Z,8.40
2022-10-27T07:41:33.069Z,12.70
2022-10-27T07:44:22.564Z,11.55
2022-10-27T07:47:11.631Z,7.63
2022-10-27T07:50:00.460Z,4.53
2022-10-27T07:52:51.603Z,8.27
2022-10-27T07:55:41.397Z,10.10
2022-10-27T07:58:31.470Z,3.88
2022-10-27T08:01:20.953Z,7.25
2022-10-27T08:04:12.985Z,6.47
2022-10-27T08:07:02.928Z,6.95
2022-10-27T08:09:52.114Z,13.05
2022-10-27T08:12:47.929Z,5.70
2022-10-27T08:15:38.521Z,12.18
2022-10-27T08:18:27.712Z,18.25
2022-10-27T08:21:16.339Z,9.10
2022-10-27T08:24:09.986Z,21.27
2022-10-27T08:26:59.446Z,9.00
2022-10-27T08:29:52.652Z,8.77
2022-10-27T08:32:43.317Z,11.10
2022-10-27T08:35:39.034Z,15.07
2022-10-27T08:38:31.171Z,12.50
2022-10-27T08:41:30.333Z,7.57
2022-10-27T08:44:49.730Z,12.27
2022-10-27T08:47:39.590Z,18.60
2022-10-27T08:50:30.726Z,17.33
2022-10-27T08:53:33.264Z,14.02
2022-10-27T08:56:23.137Z,12.63
2022-10-27T08:59:18.395Z,14.93
2022-10-27T09:02:29.169Z,10.98
2022-10-27T09:05:31.346Z,10.82
2022-10-27T09:08:28.119Z,26.88
2022-10-27T09:11:23.628Z,13.48
2022-10-27T09:14:41.976Z,15.77
2022-10-27T09:17:44.704Z,15.20
2022-10-27T09:20:52.585Z,63.50
2022-10-27T09:23:53.605Z,13.93
2022-10-27T09:26:43.968Z,29.02
2022-10-27T09:29:43.414Z,14.48
2022-10-27T09:32:35.109Z,16.73
2022-10-27T09:35:32.184Z,19.92
2022-10-27T09:38:24.573Z,17.63
2022-10-27T09:41:13.319Z,32.95
2022-10-27T09:44:03.125Z,27.17
2022-10-27T09:46:56.446Z,16.58
2022-10-27T09:49:49.246Z,18.92
2022-10-27T09:52:44.447Z,24.75
2022-10-27T09:55:54.669Z,26.50
2022-10-27T09:58:51.473Z,39.72
2022-10-27T10:01:50.920Z,19.40
2022-10-27T10:04:48.395Z,19.25
2022-10-27T10:07:42.007Z,17.20
2022-10-27T10:10:31.709Z,36.40
2022-10-27T10:13:21.686Z,27.98
2022-10-27T10:16:17.139Z,16.00
2022-10-27T10:19:21.536Z,14.20
2022-10-27T10:22:22.364Z,17.40
2022-10-27T10:25:25.728Z,26.48
2022-10-27T10:28:41.064Z,18.88
2022-10-27T10:31:32.212Z,18.75
2022-10-27T10:34:48.834Z,20.08
2022-10-27T10:37:55.969Z,16.33
2022-10-27T10:40:44.601Z,16.20
2022-10-27T10:43:33.822Z,12.23
2022-10-27T10:46:26.681Z,15.02
2022-10-27T10:49:43.248Z,14.90
2022-10-27T10:52:38.490Z,20.00
2022-10-27T10:55:36.442Z,16.08
2022-10-27T10:58:27.962Z,18.65
2022-10-27T11:01:16.828Z,15.70
2022-10-27T11:04:06.930Z,14.80
2022-10-27T11:07:02.137Z,12.90
2022-10-27T11:10:32.470Z,16.85
2022-10-27T11:13:23.419Z,16.27
2022-10-27T11:16:14.002Z,13.85
2022-10-27T11:19:08.602Z,14.43
2022-10-27T11:22:05.737Z,18.35
2022-10-27T11:25:07.169Z,17.60
2022-10-27T11:28:12.291Z,16.65
2022-10-27T11:31:37.218Z,20.00
2022-10-27T11:34:48.522Z,20.65
2022-10-27T11:37:46.564Z,16.75
2022-10-27T11:40:48.801Z,19.35
2022-10-27T11:43:50.574Z,26.85
2022-10-27T11:47:13.245Z,17.35
2022-10-27T11:50:40.694Z,17.98
2022-10-27T11:53:30.557Z,19.08
2022-10-27T11:56:44.343Z,14.60
2022-10-27T12:00:09.452Z,19.35
2022-10-27T12:03:20.450Z,28.67
2022-10-27T12:06:11.937Z,17.17
2022-10-27T12:09:28.966Z,14.93
2022-10-27T12:12:41.546Z,15.23
2022-10-27T12:15:57.048Z,9.55
2022-10-27T12:18:58.228Z,12.85
2022-10-27T12:22:09.018Z,13.57
2022-10-27T12:25:11.159Z,14.35
2022-10-27T12:28:03.386Z,12.50
2022-10-27T12:31:02.414Z,12.88
2022-10-27T12:33:57.036Z,14.27
2022-10-27T12:37:00.784Z,15.07
2022-10-27T12:39:58.888Z,13.00
2022-10-27T12:43:12.230Z,9.40
2022-10-27T12:46:30.251Z,13.43
2022-10-27T12:49:43.286Z,12.68
2022-10-27T12:52:36.108Z,13.27
2022-10-27T12:55:54.912Z,15.00
2022-10-27T12:58:53.276Z,16.83
2022-10-27T13:01:57.128Z,15.07
2022-10-27T13:05:19.571Z,11.90
2022-10-27T13:08:36.165Z,11.68
2022-10-27T13:11:38.482Z,13.93
2022-10-27T13:14:51.596Z,11.73
2022-10-27T13:17:56.940Z,11.32
2022-10-27T13:20:48.466Z,13.07
2022-10-27T13:23:55.321Z,15.50
2022-10-27T13:26:55.655Z,9.48
2022-10-27T13:30:32.279Z,11.20
2022-10-27T13:33:43.817Z,12.68
2022-10-27T13:36:32.824Z,10.48
2022-10-27T13:39:22.357Z,10.60
2022-10-27T13:42:18.306Z,9.88
2022-10-27T13:45:29.354Z,11.88
2022-10-27T13:48:18.362Z,10.60
2022-10-27T13:51:48.923Z,7.90
2022-10-27T13:54:55.278Z,8.57
2022-10-27T13:58:06.783Z,11.43
2022-10-27T14:01:21.822Z,8.90
2022-10-27T14:04:43.274Z,11.25
2022-10-27T14:07:39.708Z,9.18
2022-10-27T14:10:31.621Z,8.23
2022-10-27T14:13:37.418Z,10.48
2022-10-27T14:16:35.475Z,13.45
2022-10-27T14:19:31.442Z,9.93
2022-10-27T14:22:53.875Z,11.77
2022-10-27T14:25:47.873Z,9.38
2022-10-27T14:28:36.995Z,12.63
2022-10-27T14:31:26.500Z,9.65
2022-10-27T14:34:20.974Z,9.05
2022-10-27T14:37:22.005Z,11.68
2022-10-27T14:40:22.146Z,9.77
2022-10-27T14:43:23.042Z,11.02
2022-10-27T14:46:23.534Z,9.80
2022-10-27T14:49:47.251Z,10.10
2022-10-27T14:52:45.882Z,9.50
2022-10-27T14:55:40.161Z,9.82
2022-10-27T14:58:29.731Z,7.15
2022-10-27T15:01:27.628Z,6.47
2022-10-27T15:04:27.279Z,10.20
2022-10-27T15:07:21.108Z,11.63
2022-10-27T15:10:18.478Z,8.68
2022-10-27T15:13:12.389Z,13.75
2022-10-27T15:16:08.747Z,10.88
2022-10-27T15:19:02.203Z,10.98
2022-10-27T15:21:51.687Z,13.88
2022-10-27T15:24:40.455Z,17.05
2022-10-27T15:27:35.404Z,18.10
2022-10-27T15:30:24.163Z,19.75
2022-10-27T15:33:29.431Z,20.05
2022-10-27T15:36:18.497Z,17.88
2022-10-27T15:39:13.675Z,13.70
2022-10-27T15:42:05.638Z,18.20
2022-10-27T15:44:59.031Z,17.10
2022-10-27T15:47:52.188Z,18.42
2022-10-27T15:50:44.187Z,20.95
2022-10-27T15:53:46.262Z,18.08
2022-10-27T15:56:38.029Z,20.17
2022-10-27T15:59:30.049Z,21.73
2022-10-27T16:02:32.282Z,21.73
2022-10-27T16:05:34.162Z,21.55
2022-10-27T16:08:22.774Z,23.95
2022-10-27T16:11:14.474Z,23.00
2022-10-27T16:14:32.959Z,24.02
2022-10-27T16:17:41.268Z,17.35
2022-10-27T16:20:45.358Z,21.58
2022-10-27T16:23:38.884Z,20.80
2022-10-27T16:26:30.840Z,20.15
2022-10-27T16:29:22.965Z,20.98
2022-10-27T16:32:13.833Z,19.88
2022-10-27T16:35:06.071Z,24.58
2022-10-27T16:37:54.811Z,25.05
2022-10-27T16:40:47.669Z,26.33
2022-10-27T16:43:38.189Z,23.25
2022-10-27T16:46:28.573Z,22.55
2022-10-27T16:49:17.423Z,27.23
2022-10-27T16:52:09.869Z,23.00
2022-10-27T16:54:59.724Z,25.20
2022-10-27T16:57:51.555Z,23.50
2022-10-27T17:00:46.630Z,27.17
2022-10-27T17:03:40.695Z,24.80
2022-10-27T17:06:30.102Z,24.52
2022-10-27T17:09:27.326Z,22.55
2022-10-27T17:12:16.066Z,19.55
2022-10-27T17:15:25.809Z,24.27
2022-10-27T17:18:15.512Z,23.73
2022-10-27T17:21:07.734Z,20.05
2022-10-27T17:23:56.528Z,27.05
2022-10-27T17:26:45.600Z,25.10
2022-10-27T17:29:34.457Z,23.40
2022-10-27T17:32:24.406Z,23.67
2022-10-27T17:35:13.126Z,21.80
2022-10-27T17:38:02.878Z,27.52
2022-10-27T17:40:53.398Z,26.33
2022-10-27T17:43:42.615Z,30.65
2022-10-27T17:46:31.675Z,30.50
2022-10-27T17:49:30.593Z,30.30
2022-10-27T17:52:20.240Z,30.08
2022-10-27T17:55:09.932Z,24.95
2022-10-27T17:57:59.627Z,28.80
2022-10-27T18:00:48.810Z,26.27
2022-10-27T18:03:42.320Z,28.85
2022-10-27T18:06:33.096Z,24.90
2022-10-27T18:09:22.805Z,28.98
2022-10-27T18:12:12.402Z,22.08
2022-10-27T18:15:23.797Z,26.40
2022-10-27T18:18:11.212Z,26.33
2022-10-27T18:21:05.730Z,27.13
2022-10-27T18:23:59.970Z,29.25
2022-10-27T18:26:49.240Z,32.95
2022-10-27T18:29:39.767Z,35.25
2022-10-27T18:32:31.141Z,35.70
2022-10-27T18:35:22.337Z,31.85
2022-10-27T18:38:11.476Z,29.95
2022-10-27T18:41:04.431Z,31.48
2022-10-27T18:43:55.365Z,32.35
2022-10-27T18:46:45.111Z,33.05
2022-10-27T18:49:48.060Z,31.15
2022-10-27T18:52:38.544Z,30.10
2022-10-27T18:55:27.335Z,28.40
2022-10-27T18:58:16.343Z,27.88
2022-10-27T19:01:16.040Z,28.45
2022-10-27T19:04:09.815Z,26.23
2022-10-27T19:06:59.363Z,28.73
2022-10-27T19:09:49.177Z,26.40
2022-10-27T19:12:38.069Z,25.65
2022-10-27T19:15:27.802Z,29.05
2022-10-27T19:18:16.982Z,24.85
2022-10-27T19:24:03.299Z,25.98
2022-10-27T19:26:54.325Z,24.67
2022-10-27T19:29:43.110Z,27.83
2022-10-27T19:32:32.819Z,31.75
2022-10-27T19:35:22.146Z,28.30
2022-10-27T19:38:11.701Z,27.48
2022-10-27T19:41:01.345Z,26.60
2022-10-27T19:43:55.694Z,27.90
2022-10-27T19:46:44.845Z,28.10
2022-10-27T19:49:33.909Z,27.88
2022-10-27T19:52:23.190Z,22.23
2022-10-27T19:55:12.396Z,24.80
2022-10-27T19:58:01.718Z,23.67
2022-10-27T20:00:50.644Z,27.42
2022-10-27T20:03:41.356Z,29.15
2022-10-27T20:06:35.659Z,22.95
2022-10-27T20:09:24.992Z,25.98
2022-10-27T20:12:14.090Z,23.55
2022-10-27T20:15:03.088Z,23.90
2022-10-27T20:17:52.709Z,24.50
2022-10-27T20:20:42.271Z,26.65
2022-10-27T20:23:32.424Z,27.08
2022-10-27T20:26:29.033Z,24.20
2022-10-27T20:29:24.134Z,23.30
2022-10-27T20:32:16.305Z,28.17
2022-10-27T20:35:07.103Z,28.10
2022-10-27T20:37:57.416Z,25.98
2022-10-27T20:40:49.202Z,30.33
2022-10-27T20:43:38.542Z,29.08
2022-10-27T20:46:29.627Z,30.05
2022-10-27T20:49:18.469Z,32.50
2022-10-27T20:52:07.846Z,28.13
2022-10-27T20:54:56.897Z,26.45
2022-10-27T20:57:46.376Z,30.75
2022-10-27T21:00:35.328Z,28.13
2022-10-27T21:03:24.908Z,29.65
2022-10-27T21:06:14.103Z,28.10
2022-10-27T21:09:05.774Z,30.40
2022-10-27T21:11:54.790Z,28.65
2022-10-27T21:14:44.518Z,24.83
2022-10-27T21:17:33.974Z,23.60
2022-10-27T21:20:22.756Z,24.58
2022-10-27T21:23:14.655Z,23.27
2022-10-27T21:26:07.610Z,24.13
2022-10-27T21:28:57.901Z,24.10
2022-10-27T21:31:47.568Z,28.25
2022-10-27T21:34:36.984Z,25.67
2022-10-27T21:37:27.212Z,24.42
2022-10-27T21:40:18.751Z,28.92
2022-10-27T21:43:07.752Z,24.08
2022-10-27T21:45:57.855Z,24.52
2022-10-27T21:48:47.076Z,26.58
2022-10-27T21:51:36.310Z,23.70
2022-10-27T21:54:26.337Z,26.58
2022-10-27T21:57:15.328Z,28.20
2022-10-27T22:00:05.119Z,26.60
2022-10-27T22:02:53.371Z,24.38
2022-10-27T22:05:43.865Z,26.35
2022-10-27T22:08:32.857Z,29.27
2022-10-27T22:11:24.943Z,28.30
2022-10-27T22:14:14.995Z,28.10
2022-10-27T22:17:03.699Z,23.80
2022-10-27T22:19:54.215Z,31.48
2022-10-27T22:22:43.388Z,26.48
2022-10-27T22:25:33.624Z,31.65
2022-10-27T22:28:22.500Z,27.73
2022-10-27T22:31:13.737Z,34.95
2022-10-27T22:34:04.098Z,29.63
2022-10-27T22:36:53.799Z,37.45
2022-10-27T22:39:42.764Z,28.63
2022-10-27T22:42:32.249Z,30.02
2022-10-27T22:45:23.520Z,32.53
2022-10-27T22:48:12.352Z,28.00
2022-10-27T22:51:06.764Z,28.17
2022-10-27T22:53:56.874Z,27.90
2022-10-27T22:56:45.863Z,25.70
2022-10-27T22:59:35.222Z,25.00
2022-10-27T23:02:24.923Z,24.70
2022-10-27T23:05:17.368Z,24.77
2022-10-27T23:08:06.592Z,26.27
2022-10-27T23:11:04.712Z,29.02
2022-10-27T23:13:54.394Z,23.88
2022-10-27T23:16:44.918Z,24.40
2022-10-27T23:19:34.070Z,29.20
2022-10-27T23:22:26.180Z,29.10
2022-10-27T23:25:15.749Z,29.23
2022-10-27T23:28:06.157Z,24.13
2022-10-27T23:30:55.327Z,28.60
2022-10-27T23:33:47.606Z,24.75
2022-10-27T23:36:37.110Z,19.88
2022-10-27T23:39:27.791Z,21.40
2022-10-27T23:42:16.988Z,16.63
2022-10-27T23:45:06.274Z,23.10
2022-10-27T23:47:55.521Z,21.70
2022-10-27T23:50:45.294Z,22.63
2022-10-27T23:53:44.463Z,22.33
2022-10-27T23:56:33.189Z,20.67
2022-10-27T23:59:22.981Z,23.63
